sensor_id;sensor_type;location;lat;lon;timestamp;P1;durP1;ratioP1;P2;durP2;ratioP2
12088;SDS011;6107;49.078;8.578;2023-04-15T00:02:17;8.80;;;2.80;;
12088;SDS011;6107;49.078;8.578;2023-04-15T00:04:46;5.90;;;2.60;;
12088;SDS011;6107;49.078;8.578;2023-04-15T00:07:12;7.03;;;3.20;;
12088;SDS011;6107;49.078;8.578;2023-04-15T00:09:38;5.30;;;2.60;;
12088;SDS011;6107;49.078;8.578;2023-04-15T00:12:05;5.50;;;2.40;;
12088;SDS011;6107;49.078;8.578;2023-04-15T00:14:30;7.20;;;2.70;;
12088;SDS011;6107;49.078;8.578;2023-04-15T00:16:57;5.57;;;2.83;;
12088;SDS011;6107;49.078;8.578;2023-04-15T00:19:23;4.07;;;2.50;;
12088;SDS011;6107;49.078;8.578;2023-04-15T00:21:49;6.00;;;2.83;;
12088;SDS011;6107;49.078;8.578;2023-04-15T00:24:15;5.37;;;2.63;;
12088;SDS011;6107;49.078;8.578;2023-04-15T00:26:41;7.33;;;3.20;;
12088;SDS011;6107;49.078;8.578;2023-04-15T00:29:06;10.17;;;2.90;;
12088;SDS011;6107;49.078;8.578;2023-04-15T00:31:32;4.87;;;2.60;;
12088;SDS011;6107;49.078;8.578;2023-04-15T00:33:57;5.83;;;2.97;;
12088;SDS011;6107;49.078;8.578;2023-04-15T00:36:23;3.80;;;2.30;;
12088;SDS011;6107;49.078;8.578;2023-04-15T00:38:50;4.93;;;2.60;;
12088;SDS011;6107;49.078;8.578;2023-04-15T00:41:15;3.17;;;2.23;;
12088;SDS011;6107;49.078;8.578;2023-04-15T00:43:43;4.43;;;2.60;;
12088;SDS011;6107;49.078;8.578;2023-04-15T00:46:08;2.40;;;2.17;;
12088;SDS011;6107;49.078;8.578;2023-04-15T00:48:38;3.77;;;2.50;;
12088;SDS011;6107;49.078;8.578;2023-04-15T00:51:04;3.00;;;2.23;;
12088;SDS011;6107;49.078;8.578;2023-04-15T00:53:31;3.67;;;2.53;;
12088;SDS011;6107;49.078;8.578;2023-04-15T00:55:56;4.87;;;2.63;;
12088;SDS011;6107;49.078;8.578;2023-04-15T00:58:22;5.60;;;2.77;;
12088;SDS011;6107;49.078;8.578;2023-04-15T01:00:47;4.23;;;2.30;;
12088;SDS011;6107;49.078;8.578;2023-04-15T01:03:13;8.37;;;2.47;;
12088;SDS011;6107;49.078;8.578;2023-04-15T01:05:39;3.87;;;2.27;;
12088;SDS011;6107;49.078;8.578;2023-04-15T01:08:05;4.43;;;2.37;;
12088;SDS011;6107;49.078;8.578;2023-04-15T01:10:31;4.07;;;2.30;;
12088;SDS011;6107;49.078;8.578;2023-04-15T01:12:57;4.40;;;2.60;;
12088;SDS011;6107;49.078;8.578;2023-04-15T01:15:23;3.90;;;2.70;;
12088;SDS011;6107;49.078;8.578;2023-04-15T01:17:49;6.80;;;2.40;;
12088;SDS011;6107;49.078;8.578;2023-04-15T01:20:14;8.90;;;2.93;;
12088;SDS011;6107;49.078;8.578;2023-04-15T01:22:40;6.67;;;2.63;;
12088;SDS011;6107;49.078;8.578;2023-04-15T01:25:10;6.70;;;2.57;;
12088;SDS011;6107;49.078;8.578;2023-04-15T01:27:39;4.63;;;2.60;;
12088;SDS011;6107;49.078;8.578;2023-04-15T01:30:06;4.80;;;2.80;;
12088;SDS011;6107;49.078;8.578;2023-04-15T01:32:32;5.83;;;2.80;;
12088;SDS011;6107;49.078;8.578;2023-04-15T01:34:58;4.60;;;2.67;;
12088;SDS011;6107;49.078;8.578;2023-04-15T01:37:24;5.30;;;2.90;;
12088;SDS011;6107;49.078;8.578;2023-04-15T01:39:50;4.23;;;2.40;;
12088;SDS011;6107;49.078;8.578;2023-04-15T01:42:17;3.47;;;2.40;;
12088;SDS011;6107;49.078;8.578;2023-04-15T01:44:42;5.50;;;2.70;;
12088;SDS011;6107;49.078;8.578;2023-04-15T01:47:08;4.87;;;2.60;;
12088;SDS011;6107;49.078;8.578;2023-04-15T01:49:33;4.40;;;2.83;;
12088;SDS011;6107;49.078;8.578;2023-04-15T01:51:59;2.80;;;2.40;;
12088;SDS011;6107;49.078;8.578;2023-04-15T01:54:24;6.53;;;2.67;;
12088;SDS011;6107;49.078;8.578;2023-04-15T01:56:51;5.10;;;2.53;;
12088;SDS011;6107;49.078;8.578;2023-04-15T01:59:17;4.23;;;2.70;;
12088;SDS011;6107;49.078;8.578;2023-04-15T02:01:43;4.17;;;2.57;;
12088;SDS011;6107;49.078;8.578;2023-04-15T02:04:09;4.20;;;2.83;;
12088;SDS011;6107;49.078;8.578;2023-04-15T02:06:40;4.00;;;2.40;;
12088;SDS011;6107;49.078;8.578;2023-04-15T02:09:10;3.60;;;2.40;;
12088;SDS011;6107;49.078;8.578;2023-04-15T02:11:36;5.97;;;2.87;;
12088;SDS011;6107;49.078;8.578;2023-04-15T02:14:02;4.70;;;2.63;;
12088;SDS011;6107;49.078;8.578;2023-04-15T02:16:29;6.13;;;2.77;;
12088;SDS011;6107;49.078;8.578;2023-04-15T02:18:56;4.40;;;2.63;;
12088;SDS011;6107;49.078;8.578;2023-04-15T02:21:21;4.90;;;2.83;;
12088;SDS011;6107;49.078;8.578;2023-04-15T02:23:47;5.00;;;3.17;;
12088;SDS011;6107;49.078;8.578;2023-04-15T02:26:13;3.10;;;2.43;;
12088;SDS011;6107;49.078;8.578;2023-04-15T02:28:38;4.30;;;2.50;;
12088;SDS011;6107;49.078;8.578;2023-04-15T02:31:05;5.67;;;2.90;;
12088;SDS011;6107;49.078;8.578;2023-04-15T02:33:31;5.43;;;2.97;;
12088;SDS011;6107;49.078;8.578;2023-04-15T02:35:56;4.67;;;2.70;;
12088;SDS011;6107;49.078;8.578;2023-04-15T02:38:23;4.10;;;2.77;;
12088;SDS011;6107;49.078;8.578;2023-04-15T02:40:48;4.33;;;2.80;;
12088;SDS011;6107;49.078;8.578;2023-04-15T02:43:15;5.70;;;2.57;;
12088;SDS011;6107;49.078;8.578;2023-04-15T02:45:41;7.97;;;2.60;;
12088;SDS011;6107;49.078;8.578;2023-04-15T02:48:07;4.07;;;2.63;;
12088;SDS011;6107;49.078;8.578;2023-04-15T02:50:33;6.20;;;2.70;;
12088;SDS011;6107;49.078;8.578;2023-04-15T02:52:59;7.00;;;2.83;;
12088;SDS011;6107;49.078;8.578;2023-04-15T02:55:26;5.53;;;2.67;;
12088;SDS011;6107;49.078;8.578;2023-04-15T02:57:52;4.47;;;2.97;;
12088;SDS011;6107;49.078;8.578;2023-04-15T03:00:18;5.63;;;2.90;;
12088;SDS011;6107;49.078;8.578;2023-04-15T03:02:44;6.43;;;2.40;;
12088;SDS011;6107;49.078;8.578;2023-04-15T03:05:11;6.73;;;2.63;;
12088;SDS011;6107;49.078;8.578;2023-04-15T03:07:37;3.93;;;2.63;;
12088;SDS011;6107;49.078;8.578;2023-04-15T03:10:05;3.80;;;2.60;;
12088;SDS011;6107;49.078;8.578;2023-04-15T03:12:31;6.93;;;2.90;;
12088;SDS011;6107;49.078;8.578;2023-04-15T03:14:56;4.83;;;2.73;;
12088;SDS011;6107;49.078;8.578;2023-04-15T03:17:22;6.00;;;2.73;;
12088;SDS011;6107;49.078;8.578;2023-04-15T03:19:47;4.83;;;2.80;;
12088;SDS011;6107;49.078;8.578;2023-04-15T03:22:13;6.93;;;3.10;;
12088;SDS011;6107;49.078;8.578;2023-04-15T03:24:38;3.97;;;2.73;;
12088;SDS011;6107;49.078;8.578;2023-04-15T03:27:04;5.60;;;2.60;;
12088;SDS011;6107;49.078;8.578;2023-04-15T03:29:32;5.67;;;2.73;;
12088;SDS011;6107;49.078;8.578;2023-04-15T03:31:57;7.03;;;2.80;;
12088;SDS011;6107;49.078;8.578;2023-04-15T03:34:23;4.83;;;2.70;;
12088;SDS011;6107;49.078;8.578;2023-04-15T03:36:48;5.23;;;2.47;;
12088;SDS011;6107;49.078;8.578;2023-04-15T03:39:14;3.90;;;2.20;;
12088;SDS011;6107;49.078;8.578;2023-04-15T03:41:40;4.60;;;2.57;;
12088;SDS011;6107;49.078;8.578;2023-04-15T03:44:06;6.13;;;2.90;;
12088;SDS011;6107;49.078;8.578;2023-04-15T03:46:31;6.83;;;3.00;;
12088;SDS011;6107;49.078;8.578;2023-04-15T03:48:57;5.23;;;2.67;;
12088;SDS011;6107;49.078;8.578;2023-04-15T03:51:22;5.67;;;3.50;;
12088;SDS011;6107;49.078;8.578;2023-04-15T03:53:48;4.80;;;2.87;;
12088;SDS011;6107;49.078;8.578;2023-04-15T03:56:13;3.63;;;2.50;;
12088;SDS011;6107;49.078;8.578;2023-04-15T03:58:39;6.67;;;2.80;;
12088;SDS011;6107;49.078;8.578;2023-04-15T04:01:05;3.13;;;2.50;;
12088;SDS011;6107;49.078;8.578;2023-04-15T04:03:31;6.60;;;2.77;;
12088;SDS011;6107;49.078;8.578;2023-04-15T04:05:57;4.13;;;2.97;;
12088;SDS011;6107;49.078;8.578;2023-04-15T04:08:23;6.13;;;2.73;;
12088;SDS011;6107;49.078;8.578;2023-04-15T04:10:48;5.63;;;3.30;;
12088;SDS011;6107;49.078;8.578;2023-04-15T04:13:14;4.27;;;2.70;;
12088;SDS011;6107;49.078;8.578;2023-04-15T04:15:39;3.37;;;2.90;;
12088;SDS011;6107;49.078;8.578;2023-04-15T04:18:05;5.93;;;3.10;;
12088;SDS011;6107;49.078;8.578;2023-04-15T04:20:30;5.07;;;3.20;;
12088;SDS011;6107;49.078;8.578;2023-04-15T04:22:56;5.83;;;3.37;;
12088;SDS011;6107;49.078;8.578;2023-04-15T04:25:22;5.67;;;3.27;;
12088;SDS011;6107;49.078;8.578;2023-04-15T04:27:48;3.97;;;2.50;;
12088;SDS011;6107;49.078;8.578;2023-04-15T04:30:14;5.10;;;2.90;;
12088;SDS011;6107;49.078;8.578;2023-04-15T04:32:40;5.37;;;2.63;;
12088;SDS011;6107;49.078;8.578;2023-04-15T04:35:05;8.10;;;4.07;;
12088;SDS011;6107;49.078;8.578;2023-04-15T04:37:31;11.67;;;4.73;;
12088;SDS011;6107;49.078;8.578;2023-04-15T04:39:57;8.70;;;3.73;;
12088;SDS011;6107;49.078;8.578;2023-04-15T04:42:22;5.20;;;3.03;;
12088;SDS011;6107;49.078;8.578;2023-04-15T04:44:48;6.37;;;2.90;;
12088;SDS011;6107;49.078;8.578;2023-04-15T04:47:13;7.10;;;3.00;;
12088;SDS011;6107;49.078;8.578;2023-04-15T04:49:39;4.43;;;3.07;;
12088;SDS011;6107;49.078;8.578;2023-04-15T04:52:05;7.17;;;3.30;;
12088;SDS011;6107;49.078;8.578;2023-04-15T04:54:31;4.93;;;3.00;;
12088;SDS011;6107;49.078;8.578;2023-04-15T04:56:57;5.80;;;3.50;;
12088;SDS011;6107;49.078;8.578;2023-04-15T04:59:22;5.40;;;3.00;;
12088;SDS011;6107;49.078;8.578;2023-04-15T05:01:48;5.43;;;3.10;;
12088;SDS011;6107;49.078;8.578;2023-04-15T05:04:14;4.30;;;2.97;;
12088;SDS011;6107;49.078;8.578;2023-04-15T05:06:40;3.10;;;2.50;;
12088;SDS011;6107;49.078;8.578;2023-04-15T05:09:05;4.03;;;2.80;;
12088;SDS011;6107;49.078;8.578;2023-04-15T05:11:32;8.77;;;3.23;;
12088;SDS011;6107;49.078;8.578;2023-04-15T05:13:57;6.97;;;3.43;;
12088;SDS011;6107;49.078;8.578;2023-04-15T05:16:25;4.90;;;3.00;;
12088;SDS011;6107;49.078;8.578;2023-04-15T05:18:51;5.90;;;3.07;;
12088;SDS011;6107;49.078;8.578;2023-04-15T05:21:16;4.80;;;3.57;;
12088;SDS011;6107;49.078;8.578;2023-04-15T05:23:42;6.37;;;3.70;;
12088;SDS011;6107;49.078;8.578;2023-04-15T05:26:08;5.90;;;3.63;;
12088;SDS011;6107;49.078;8.578;2023-04-15T05:28:33;6.27;;;3.60;;
12088;SDS011;6107;49.078;8.578;2023-04-15T05:30:59;4.90;;;3.33;;
12088;SDS011;6107;49.078;8.578;2023-04-15T05:33:24;3.13;;;2.83;;
12088;SDS011;6107;49.078;8.578;2023-04-15T05:35:50;3.70;;;2.80;;
12088;SDS011;6107;49.078;8.578;2023-04-15T05:38:15;5.37;;;3.80;;
12088;SDS011;6107;49.078;8.578;2023-04-15T05:40:41;6.57;;;3.67;;
12088;SDS011;6107;49.078;8.578;2023-04-15T05:43:06;4.80;;;3.40;;
12088;SDS011;6107;49.078;8.578;2023-04-15T05:45:32;8.03;;;4.50;;
12088;SDS011;6107;49.078;8.578;2023-04-15T05:47:58;6.13;;;3.63;;
12088;SDS011;6107;49.078;8.578;2023-04-15T05:50:23;5.33;;;4.00;;
12088;SDS011;6107;49.078;8.578;2023-04-15T05:52:49;8.50;;;4.70;;
12088;SDS011;6107;49.078;8.578;2023-04-15T05:55:20;6.83;;;3.67;;
12088;SDS011;6107;49.078;8.578;2023-04-15T05:58:16;7.70;;;4.57;;
12088;SDS011;6107;49.078;8.578;2023-04-15T06:00:41;8.17;;;4.67;;
12088;SDS011;6107;49.078;8.578;2023-04-15T06:03:07;7.70;;;3.90;;
12088;SDS011;6107;49.078;8.578;2023-04-15T06:05:33;8.63;;;3.93;;
12088;SDS011;6107;49.078;8.578;2023-04-15T06:07:59;5.53;;;3.63;;
12088;SDS011;6107;49.078;8.578;2023-04-15T06:10:24;11.03;;;5.00;;
12088;SDS011;6107;49.078;8.578;2023-04-15T06:12:51;9.90;;;6.20;;
12088;SDS011;6107;49.078;8.578;2023-04-15T06:15:17;6.53;;;4.73;;
12088;SDS011;6107;49.078;8.578;2023-04-15T06:17:43;6.03;;;4.40;;
12088;SDS011;6107;49.078;8.578;2023-04-15T06:20:09;6.97;;;5.40;;
12088;SDS011;6107;49.078;8.578;2023-04-15T06:22:35;8.17;;;4.83;;
12088;SDS011;6107;49.078;8.578;2023-04-15T06:25:02;9.23;;;5.17;;
12088;SDS011;6107;49.078;8.578;2023-04-15T06:27:28;8.33;;;4.53;;
12088;SDS011;6107;49.078;8.578;2023-04-15T06:29:54;11.20;;;6.00;;
12088;SDS011;6107;49.078;8.578;2023-04-15T06:32:20;9.43;;;5.70;;
12088;SDS011;6107;49.078;8.578;2023-04-15T06:34:45;8.93;;;4.77;;
12088;SDS011;6107;49.078;8.578;2023-04-15T06:37:11;7.73;;;3.83;;
12088;SDS011;6107;49.078;8.578;2023-04-15T06:39:40;5.07;;;3.60;;
12088;SDS011;6107;49.078;8.578;2023-04-15T06:42:06;7.73;;;4.83;;
12088;SDS011;6107;49.078;8.578;2023-04-15T06:44:33;5.57;;;3.23;;
12088;SDS011;6107;49.078;8.578;2023-04-15T06:46:58;7.43;;;3.70;;
12088;SDS011;6107;49.078;8.578;2023-04-15T06:49:24;9.20;;;3.90;;
12088;SDS011;6107;49.078;8.578;2023-04-15T06:52:03;7.87;;;3.87;;
12088;SDS011;6107;49.078;8.578;2023-04-15T06:54:29;5.40;;;3.10;;
12088;SDS011;6107;49.078;8.578;2023-04-15T06:56:54;6.77;;;3.40;;
12088;SDS011;6107;49.078;8.578;2023-04-15T06:59:20;7.83;;;3.40;;
12088;SDS011;6107;49.078;8.578;2023-04-15T07:01:46;8.70;;;3.53;;
12088;SDS011;6107;49.078;8.578;2023-04-15T07:04:14;9.30;;;3.83;;
12088;SDS011;6107;49.078;8.578;2023-04-15T07:06:40;5.13;;;2.80;;
12088;SDS011;6107;49.078;8.578;2023-04-15T07:09:06;4.27;;;2.60;;
12088;SDS011;6107;49.078;8.578;2023-04-15T07:11:32;4.70;;;2.87;;
12088;SDS011;6107;49.078;8.578;2023-04-15T07:13:58;6.37;;;3.00;;
12088;SDS011;6107;49.078;8.578;2023-04-15T07:16:23;4.97;;;2.80;;
12088;SDS011;6107;49.078;8.578;2023-04-15T07:18:49;3.63;;;2.80;;
12088;SDS011;6107;49.078;8.578;2023-04-15T07:21:15;9.03;;;3.10;;
12088;SDS011;6107;49.078;8.578;2023-04-15T07:23:40;6.23;;;2.80;;
12088;SDS011;6107;49.078;8.578;2023-04-15T07:26:07;5.57;;;2.80;;
12088;SDS011;6107;49.078;8.578;2023-04-15T07:28:33;4.50;;;2.70;;
12088;SDS011;6107;49.078;8.578;2023-04-15T07:31:00;7.50;;;3.60;;
12088;SDS011;6107;49.078;8.578;2023-04-15T07:33:26;7.43;;;3.20;;
12088;SDS011;6107;49.078;8.578;2023-04-15T07:35:51;5.07;;;3.13;;
12088;SDS011;6107;49.078;8.578;2023-04-15T07:38:17;5.83;;;3.60;;
12088;SDS011;6107;49.078;8.578;2023-04-15T07:40:42;5.30;;;3.10;;
12088;SDS011;6107;49.078;8.578;2023-04-15T07:43:08;5.43;;;2.63;;
12088;SDS011;6107;49.078;8.578;2023-04-15T07:45:33;5.87;;;3.07;;
12088;SDS011;6107;49.078;8.578;2023-04-15T07:47:59;7.63;;;3.57;;
12088;SDS011;6107;49.078;8.578;2023-04-15T07:50:26;8.33;;;3.90;;
12088;SDS011;6107;49.078;8.578;2023-04-15T07:52:52;8.17;;;3.83;;
12088;SDS011;6107;49.078;8.578;2023-04-15T07:55:18;8.10;;;3.90;;
12088;SDS011;6107;49.078;8.578;2023-04-15T07:57:45;7.97;;;3.60;;
12088;SDS011;6107;49.078;8.578;2023-04-15T08:00:11;5.67;;;3.27;;
12088;SDS011;6107;49.078;8.578;2023-04-15T08:02:37;8.00;;;3.90;;
12088;SDS011;6107;49.078;8.578;2023-04-15T08:05:03;8.07;;;4.03;;
12088;SDS011;6107;49.078;8.578;2023-04-15T08:07:29;8.70;;;4.17;;
12088;SDS011;6107;49.078;8.578;2023-04-15T08:09:55;6.97;;;4.30;;
12088;SDS011;6107;49.078;8.578;2023-04-15T08:12:21;10.37;;;4.27;;
12088;SDS011;6107;49.078;8.578;2023-04-15T08:14:47;11.37;;;4.47;;
12088;SDS011;6107;49.078;8.578;2023-04-15T08:17:14;6.03;;;4.07;;
12088;SDS011;6107;49.078;8.578;2023-04-15T08:19:40;7.17;;;4.17;;
12088;SDS011;6107;49.078;8.578;2023-04-15T08:22:06;7.50;;;4.43;;
12088;SDS011;6107;49.078;8.578;2023-04-15T08:24:32;7.63;;;4.50;;
12088;SDS011;6107;49.078;8.578;2023-04-15T08:26:58;7.73;;;5.07;;
12088;SDS011;6107;49.078;8.578;2023-04-15T08:29:24;7.60;;;5.30;;
12088;SDS011;6107;49.078;8.578;2023-04-15T08:31:49;10.57;;;4.97;;
12088;SDS011;6107;49.078;8.578;2023-04-15T08:34:15;11.57;;;4.73;;
12088;SDS011;6107;49.078;8.578;2023-04-15T08:36:42;9.53;;;4.50;;
12088;SDS011;6107;49.078;8.578;2023-04-15T08:39:07;9.27;;;4.80;;
12088;SDS011;6107;49.078;8.578;2023-04-15T08:41:33;9.77;;;4.90;;
12088;SDS011;6107;49.078;8.578;2023-04-15T08:44:15;10.20;;;5.00;;
12088;SDS011;6107;49.078;8.578;2023-04-15T08:46:42;9.10;;;4.90;;
12088;SDS011;6107;49.078;8.578;2023-04-15T08:49:12;9.17;;;5.13;;
12088;SDS011;6107;49.078;8.578;2023-04-15T08:51:38;6.83;;;5.07;;
12088;SDS011;6107;49.078;8.578;2023-04-15T08:54:04;10.57;;;5.53;;
12088;SDS011;6107;49.078;8.578;2023-04-15T08:56:31;8.13;;;5.27;;
12088;SDS011;6107;49.078;8.578;2023-04-15T08:58:57;8.03;;;4.47;;
12088;SDS011;6107;49.078;8.578;2023-04-15T09:01:23;7.17;;;4.13;;
12088;SDS011;6107;49.078;8.578;2023-04-15T09:03:49;6.63;;;3.97;;
12088;SDS011;6107;49.078;8.578;2023-04-15T09:06:16;7.07;;;3.97;;
12088;SDS011;6107;49.078;8.578;2023-04-15T09:08:42;7.50;;;4.13;;
12088;SDS011;6107;49.078;8.578;2023-04-15T09:11:08;8.17;;;4.20;;
12088;SDS011;6107;49.078;8.578;2023-04-15T09:13:34;7.43;;;3.90;;
12088;SDS011;6107;49.078;8.578;2023-04-15T09:16:03;8.10;;;4.07;;
12088;SDS011;6107;49.078;8.578;2023-04-15T09:18:31;7.23;;;3.90;;
12088;SDS011;6107;49.078;8.578;2023-04-15T09:23:30;7.50;;;3.90;;
12088;SDS011;6107;49.078;8.578;2023-04-15T09:25:56;7.13;;;4.30;;
12088;SDS011;6107;49.078;8.578;2023-04-15T09:28:23;7.23;;;3.83;;
12088;SDS011;6107;49.078;8.578;2023-04-15T09:30:51;6.40;;;3.77;;
12088;SDS011;6107;49.078;8.578;2023-04-15T09:33:20;6.33;;;3.93;;
12088;SDS011;6107;49.078;8.578;2023-04-15T09:35:56;6.93;;;3.90;;
12088;SDS011;6107;49.078;8.578;2023-04-15T09:38:26;6.33;;;3.53;;
12088;SDS011;6107;49.078;8.578;2023-04-15T09:40:52;6.20;;;3.70;;
12088;SDS011;6107;49.078;8.578;2023-04-15T09:43:17;6.77;;;3.73;;
12088;SDS011;6107;49.078;8.578;2023-04-15T09:45:46;4.60;;;3.60;;
12088;SDS011;6107;49.078;8.578;2023-04-15T09:48:17;8.40;;;3.63;;
12088;SDS011;6107;49.078;8.578;2023-04-15T09:50:48;6.07;;;3.50;;
12088;SDS011;6107;49.078;8.578;2023-04-15T09:53:17;4.80;;;3.13;;
12088;SDS011;6107;49.078;8.578;2023-04-15T09:55:51;6.20;;;3.50;;
12088;SDS011;6107;49.078;8.578;2023-04-15T10:00:46;8.63;;;4.07;;
12088;SDS011;6107;49.078;8.578;2023-04-15T10:03:18;6.67;;;4.03;;
12088;SDS011;6107;49.078;8.578;2023-04-15T10:05:48;6.20;;;3.80;;
12088;SDS011;6107;49.078;8.578;2023-04-15T10:08:18;7.53;;;4.00;;
12088;SDS011;6107;49.078;8.578;2023-04-15T10:10:46;7.30;;;4.00;;
12088;SDS011;6107;49.078;8.578;2023-04-15T10:13:13;7.27;;;4.50;;
12088;SDS011;6107;49.078;8.578;2023-04-15T10:15:43;6.97;;;4.23;;
12088;SDS011;6107;49.078;8.578;2023-04-15T10:18:14;6.03;;;4.20;;
12088;SDS011;6107;49.078;8.578;2023-04-15T10:20:42;8.50;;;4.83;;
12088;SDS011;6107;49.078;8.578;2023-04-15T10:23:08;6.77;;;4.50;;
12088;SDS011;6107;49.078;8.578;2023-04-15T10:25:34;9.90;;;4.80;;
12088;SDS011;6107;49.078;8.578;2023-04-15T10:28:00;11.33;;;4.77;;
12088;SDS011;6107;49.078;8.578;2023-04-15T10:30:27;8.57;;;4.90;;
12088;SDS011;6107;49.078;8.578;2023-04-15T10:32:53;9.87;;;4.90;;
12088;SDS011;6107;49.078;8.578;2023-04-15T10:35:20;8.23;;;5.90;;
12088;SDS011;6107;49.078;8.578;2023-04-15T10:37:47;9.03;;;5.50;;
12088;SDS011;6107;49.078;8.578;2023-04-15T10:40:28;8.50;;;5.17;;
12088;SDS011;6107;49.078;8.578;2023-04-15T10:42:56;10.07;;;5.00;;
12088;SDS011;6107;49.078;8.578;2023-04-15T10:45:24;10.87;;;4.70;;
12088;SDS011;6107;49.078;8.578;2023-04-15T10:47:54;7.80;;;3.60;;
12088;SDS011;6107;49.078;8.578;2023-04-15T10:50:20;7.07;;;3.45;;
12088;SDS011;6107;49.078;8.578;2023-04-15T10:52:49;7.82;;;4.40;;
12088;SDS011;6107;49.078;8.578;2023-04-15T10:55:20;9.93;;;4.18;;
12088;SDS011;6107;49.078;8.578;2023-04-15T10:57:46;7.60;;;4.45;;
12088;SDS011;6107;49.078;8.578;2023-04-15T11:00:19;7.87;;;3.93;;
12088;SDS011;6107;49.078;8.578;2023-04-15T11:02:53;5.10;;;3.78;;
12088;SDS011;6107;49.078;8.578;2023-04-15T11:05:19;7.35;;;4.85;;
12088;SDS011;6107;49.078;8.578;2023-04-15T11:07:53;7.55;;;4.47;;
12088;SDS011;6107;49.078;8.578;2023-04-15T11:12:58;7.80;;;5.30;;
12088;SDS011;6107;49.078;8.578;2023-04-15T11:15:29;11.07;;;6.70;;
12088;SDS011;6107;49.078;8.578;2023-04-15T11:18:07;5.70;;;4.78;;
12088;SDS011;6107;49.078;8.578;2023-04-15T11:21:02;7.05;;;5.05;;
12088;SDS011;6107;49.078;8.578;2023-04-15T11:23:41;10.23;;;5.55;;
12088;SDS011;6107;49.078;8.578;2023-04-15T11:26:10;7.93;;;5.03;;
12088;SDS011;6107;49.078;8.578;2023-04-15T11:28:37;6.13;;;4.50;;
12088;SDS011;6107;49.078;8.578;2023-04-15T11:31:16;7.93;;;4.93;;
12088;SDS011;6107;49.078;8.578;2023-04-15T11:33:44;7.63;;;3.92;;
12088;SDS011;6107;49.078;8.578;2023-04-15T11:36:23;6.72;;;4.60;;
12088;SDS011;6107;49.078;8.578;2023-04-15T11:41:49;7.40;;;4.30;;
12088;SDS011;6107;49.078;8.578;2023-04-15T11:44:15;9.02;;;5.00;;
12088;SDS011;6107;49.078;8.578;2023-04-15T11:46:41;6.78;;;4.55;;
12088;SDS011;6107;49.078;8.578;2023-04-15T11:49:07;6.60;;;4.70;;
12088;SDS011;6107;49.078;8.578;2023-04-15T11:51:33;6.90;;;4.40;;
12088;SDS011;6107;49.078;8.578;2023-04-15T11:53:59;7.57;;;4.80;;
12088;SDS011;6107;49.078;8.578;2023-04-15T11:56:27;7.68;;;4.55;;
12088;SDS011;6107;49.078;8.578;2023-04-15T11:58:56;8.32;;;4.00;;
12088;SDS011;6107;49.078;8.578;2023-04-15T12:01:33;5.45;;;4.10;;
12088;SDS011;6107;49.078;8.578;2023-04-15T12:04:00;7.72;;;4.25;;
12088;SDS011;6107;49.078;8.578;2023-04-15T12:06:30;8.07;;;4.47;;
12088;SDS011;6107;49.078;8.578;2023-04-15T12:09:11;5.85;;;4.25;;
12088;SDS011;6107;49.078;8.578;2023-04-15T12:11:47;7.25;;;4.00;;
12088;SDS011;6107;49.078;8.578;2023-04-15T12:16:50;8.90;;;3.45;;
12088;SDS011;6107;49.078;8.578;2023-04-15T12:19:27;4.53;;;3.20;;
12088;SDS011;6107;49.078;8.578;2023-04-15T12:22:04;5.38;;;3.10;;
12088;SDS011;6107;49.078;8.578;2023-04-15T12:24:33;6.85;;;2.58;;
12088;SDS011;6107;49.078;8.578;2023-04-15T12:27:01;5.70;;;3.47;;
12088;SDS011;6107;49.078;8.578;2023-04-15T12:29:31;5.28;;;2.75;;
12088;SDS011;6107;49.078;8.578;2023-04-15T12:32:03;5.00;;;2.47;;
12088;SDS011;6107;49.078;8.578;2023-04-15T12:34:50;5.57;;;2.08;;
12088;SDS011;6107;49.078;8.578;2023-04-15T12:37:18;4.35;;;2.45;;
12088;SDS011;6107;49.078;8.578;2023-04-15T12:39:45;5.03;;;2.60;;
12088;SDS011;6107;49.078;8.578;2023-04-15T12:42:13;2.78;;;1.90;;
12088;SDS011;6107;49.078;8.578;2023-04-15T12:44:39;3.10;;;1.80;;
12088;SDS011;6107;49.078;8.578;2023-04-15T12:47:05;4.75;;;2.50;;
12088;SDS011;6107;49.078;8.578;2023-04-15T12:49:32;5.50;;;2.33;;
12088;SDS011;6107;49.078;8.578;2023-04-15T12:51:58;3.50;;;2.30;;
12088;SDS011;6107;49.078;8.578;2023-04-15T12:54:25;2.97;;;2.50;;
12088;SDS011;6107;49.078;8.578;2023-04-15T12:56:52;5.05;;;2.40;;
12088;SDS011;6107;49.078;8.578;2023-04-15T12:59:18;5.05;;;3.17;;
12088;SDS011;6107;49.078;8.578;2023-04-15T13:01:44;6.28;;;3.65;;
12088;SDS011;6107;49.078;8.578;2023-04-15T13:04:11;7.43;;;4.30;;
12088;SDS011;6107;49.078;8.578;2023-04-15T13:06:37;4.45;;;3.10;;
12088;SDS011;6107;49.078;8.578;2023-04-15T13:09:02;3.53;;;2.70;;
12088;SDS011;6107;49.078;8.578;2023-04-15T13:11:28;4.50;;;2.97;;
12088;SDS011;6107;49.078;8.578;2023-04-15T13:14:00;5.03;;;2.70;;
12088;SDS011;6107;49.078;8.578;2023-04-15T13:16:31;6.15;;;2.83;;
12088;SDS011;6107;49.078;8.578;2023-04-15T13:18:58;3.83;;;3.10;;
12088;SDS011;6107;49.078;8.578;2023-04-15T13:21:24;4.88;;;2.97;;
12088;SDS011;6107;49.078;8.578;2023-04-15T13:23:51;4.13;;;3.10;;
12088;SDS011;6107;49.078;8.578;2023-04-15T13:26:17;5.85;;;3.25;;
12088;SDS011;6107;49.078;8.578;2023-04-15T13:28:43;6.10;;;3.50;;
12088;SDS011;6107;49.078;8.578;2023-04-15T13:31:09;4.03;;;3.20;;
12088;SDS011;6107;49.078;8.578;2023-04-15T13:33:34;4.77;;;3.33;;
12088;SDS011;6107;49.078;8.578;2023-04-15T13:36:00;8.00;;;3.80;;
12088;SDS011;6107;49.078;8.578;2023-04-15T13:38:26;5.20;;;3.47;;
12088;SDS011;6107;49.078;8.578;2023-04-15T13:40:51;4.13;;;2.80;;
12088;SDS011;6107;49.078;8.578;2023-04-15T13:43:17;4.73;;;3.17;;
12088;SDS011;6107;49.078;8.578;2023-04-15T13:45:43;7.43;;;2.67;;
12088;SDS011;6107;49.078;8.578;2023-04-15T13:48:09;4.40;;;3.00;;
12088;SDS011;6107;49.078;8.578;2023-04-15T13:50:34;3.87;;;2.63;;
12088;SDS011;6107;49.078;8.578;2023-04-15T13:53:00;6.20;;;2.60;;
12088;SDS011;6107;49.078;8.578;2023-04-15T13:55:26;4.20;;;2.60;;
12088;SDS011;6107;49.078;8.578;2023-04-15T13:57:51;5.07;;;2.53;;
12088;SDS011;6107;49.078;8.578;2023-04-15T14:00:17;3.20;;;2.37;;
12088;SDS011;6107;49.078;8.578;2023-04-15T14:02:43;6.33;;;2.80;;
12088;SDS011;6107;49.078;8.578;2023-04-15T14:05:09;3.13;;;2.30;;
12088;SDS011;6107;49.078;8.578;2023-04-15T14:07:34;4.23;;;2.40;;
12088;SDS011;6107;49.078;8.578;2023-04-15T14:10:00;5.27;;;2.50;;
12088;SDS011;6107;49.078;8.578;2023-04-15T14:12:26;6.10;;;2.70;;
12088;SDS011;6107;49.078;8.578;2023-04-15T14:14:51;4.93;;;2.90;;
12088;SDS011;6107;49.078;8.578;2023-04-15T14:17:17;9.33;;;2.87;;
12088;SDS011;6107;49.078;8.578;2023-04-15T14:19:43;9.70;;;4.80;;
12088;SDS011;6107;49.078;8.578;2023-04-15T14:22:09;4.63;;;2.80;;
12088;SDS011;6107;49.078;8.578;2023-04-15T14:24:34;5.40;;;2.20;;
12088;SDS011;6107;49.078;8.578;2023-04-15T14:27:00;3.33;;;2.27;;
12088;SDS011;6107;49.078;8.578;2023-04-15T14:29:26;3.50;;;2.60;;
12088;SDS011;6107;49.078;8.578;2023-04-15T14:31:52;3.57;;;2.30;;
12088;SDS011;6107;49.078;8.578;2023-04-15T14:34:18;3.87;;;2.37;;
12088;SDS011;6107;49.078;8.578;2023-04-15T14:36:43;5.37;;;2.07;;
12088;SDS011;6107;49.078;8.578;2023-04-15T14:39:10;4.20;;;2.37;;
12088;SDS011;6107;49.078;8.578;2023-04-15T14:41:35;5.50;;;2.60;;
12088;SDS011;6107;49.078;8.578;2023-04-15T14:44:01;3.80;;;2.37;;
12088;SDS011;6107;49.078;8.578;2023-04-15T14:46:27;4.10;;;2.00;;
12088;SDS011;6107;49.078;8.578;2023-04-15T14:48:53;4.50;;;2.00;;
12088;SDS011;6107;49.078;8.578;2023-04-15T14:51:18;4.47;;;2.80;;
12088;SDS011;6107;49.078;8.578;2023-04-15T14:53:44;4.37;;;1.87;;
12088;SDS011;6107;49.078;8.578;2023-04-15T14:56:10;3.10;;;1.33;;
12088;SDS011;6107;49.078;8.578;2023-04-15T14:58:36;2.87;;;1.10;;
12088;SDS011;6107;49.078;8.578;2023-04-15T15:01:02;4.97;;;2.40;;
12088;SDS011;6107;49.078;8.578;2023-04-15T15:03:28;4.90;;;2.67;;
12088;SDS011;6107;49.078;8.578;2023-04-15T15:05:54;2.10;;;1.40;;
12088;SDS011;6107;49.078;8.578;2023-04-15T15:08:21;2.37;;;0.97;;
12088;SDS011;6107;49.078;8.578;2023-04-15T15:10:47;1.50;;;1.40;;
12088;SDS011;6107;49.078;8.578;2023-04-15T15:13:13;2.87;;;1.50;;